Time;durP1;ratioP1;P1;durP2;ratioP2;P2;SDS_P1;SDS_P2;PMS_P1;PMS_P2;Temp;Humidity;BMP_temperature;BMP_pressure;BME280_temperature;BME280_humidity;BME280_pressure;Samples;Min_cycle;Max_cycle;Signal;HPM_P1;HPM_P2
2022/05/03 00:00:28;;;;;;;4.73;4.10;;;10.70;99.90;;;;;;4964296;29;20216;-83
2022/05/03 00:03:07;;;;;;;5.97;4.23;;;10.70;99.90;;;;;;4966259;28;20237;-83
2022/05/03 00:05:44;;;;;;;6.10;4.07;;;10.80;99.90;;;;;;4965466;29;20237;-85
2022/05/03 00:08:21;;;;;;;5.20;4.07;;;10.60;99.90;;;;;;4965962;29;20210;-84
2022/05/03 00:11:01;;;;;;;6.37;4.10;;;10.50;99.90;;;;;;4965641;29;20237;-82
2022/05/03 00:13:30;;;;;;;5.83;3.90;;;10.50;99.90;;;;;;4966555;29;20636;-82
2022/05/03 00:15:58;;;;;;;4.77;3.73;;;10.50;99.90;;;;;;4966450;29;20260;-84
2022/05/03 00:18:26;;;;;;;5.00;3.43;;;10.40;99.90;;;;;;4966586;29;20237;-82
2022/05/03 00:20:53;;;;;;;5.60;3.20;;;10.40;99.90;;;;;;4964304;28;20206;-82
2022/05/03 00:23:22;;;;;;;5.33;3.43;;;10.20;99.90;;;;;;4964771;29;20289;-82
2022/05/03 00:25:51;;;;;;;4.90;3.67;;;10.10;99.90;;;;;;4964622;29;20323;-83
2022/05/03 00:28:19;;;;;;;3.70;3.40;;;10.00;99.90;;;;;;4965556;28;20296;-82
2022/05/03 00:30:47;;;;;;;7.03;3.70;;;10.10;99.90;;;;;;4964697;28;20218;-83
2022/05/03 00:33:16;;;;;;;3.80;3.33;;;10.30;97.70;;;;;;4963927;29;20229;-82
2022/05/03 00:35:44;;;;;;;5.03;3.77;;;10.10;97.30;;;;;;4963692;28;20226;-83
2022/05/03 00:38:11;;;;;;;5.63;3.60;;;9.90;99.90;;;;;;4963307;28;20220;-82
2022/05/03 00:40:44;;;;;;;4.60;3.30;;;9.80;99.90;;;;;;4962447;29;20221;-84
2022/05/03 00:43:15;;;;;;;4.47;3.27;;;9.80;99.90;;;;;;4964065;28;20210;-82
2022/05/03 00:45:46;;;;;;;3.63;3.10;;;10.00;95.90;;;;;;4963611;29;20309;-83
2022/05/03 00:48:29;;;;;;;4.70;3.20;;;10.00;93.60;;;;;;4964422;29;20293;-83
2022/05/03 00:51:10;;;;;;;5.03;3.47;;;9.90;95.60;;;;;;4962047;29;20292;-82
2022/05/03 00:53:53;;;;;;;4.47;3.57;;;9.70;95.40;;;;;;4962554;29;20252;-82
2022/05/03 00:56:40;;;;;;;4.90;3.10;;;9.70;94.90;;;;;;4963456;29;20332;-83
2022/05/03 00:59:20;;;;;;;6.37;4.10;;;9.70;94.50;;;;;;4963221;29;20214;-84
2022/05/03 01:01:56;;;;;;;7.27;3.57;;;9.70;94.80;;;;;;4963762;28;20288;-82
2022/05/03 01:04:29;;;;;;;6.27;3.40;;;9.90;95.50;;;;;;4965485;29;20260;-83
2022/05/03 01:07:14;;;;;;;5.43;2.90;;;10.20;88.70;;;;;;4967326;29;20210;-84
2022/05/03 01:09:43;;;;;;;3.17;2.10;;;10.20;81.00;;;;;;4966578;29;20206;-83
2022/05/03 01:12:25;;;;;;;4.47;2.20;;;10.40;67.00;;;;;;4965319;28;20744;-83
2022/05/03 01:15:07;;;;;;;3.70;2.00;;;10.40;59.70;;;;;;4965399;29;20221;-84
2022/05/03 01:17:44;;;;;;;3.67;1.90;;;10.40;58.70;;;;;;4964991;29;20266;-83
2022/05/03 01:20:14;;;;;;;3.47;1.80;;;10.40;55.00;;;;;;4964415;29;20213;-82
2022/05/03 01:23:10;;;;;;;3.73;2.20;;;10.40;50.50;;;;;;4963177;28;20206;-84
2022/05/03 01:25:53;;;;;;;2.97;1.90;;;10.60;49.20;;;;;;4897639;29;20258;-83
2022/05/03 01:28:31;;;;;;;3.97;1.70;;;10.50;53.00;;;;;;4963134;29;20680;-82
2022/05/03 01:31:03;;;;;;;1.97;1.60;;;10.40;51.60;;;;;;4961769;29;20206;-82
2022/05/03 01:33:33;;;;;;;5.17;1.60;;;10.40;50.60;;;;;;4961030;29;20760;-82
2022/05/03 01:36:01;;;;;;;3.23;1.97;;;10.40;51.00;;;;;;4961735;28;20305;-83
2022/05/03 01:38:52;;;;;;;1.70;1.50;;;10.40;50.80;;;;;;4960290;28;20218;-84
2022/05/03 01:41:28;;;;;;;1.90;1.60;;;10.30;51.40;;;;;;4959327;29;20213;-83
2022/05/03 01:44:13;;;;;;;3.03;1.53;;;10.30;52.60;;;;;;4959046;28;20676;-83
2022/05/03 01:46:41;;;;;;;3.17;1.50;;;10.20;48.10;;;;;;4964011;29;20238;-85
2022/05/03 01:52:27;;;;;;;3.90;1.60;;;10.20;48.40;;;;;;4967053;29;20225;-82
2022/05/03 01:55:07;;;;;;;3.87;1.60;;;10.20;48.30;;;;;;4966486;29;20234;-82
2022/05/03 01:57:48;;;;;;;4.10;1.70;;;10.20;49.90;;;;;;4965785;29;20210;-82
2022/05/03 02:00:15;;;;;;;2.00;1.30;;;10.00;44.20;;;;;;4967228;29;20205;-83
2022/05/03 02:02:57;;;;;;;1.60;1.20;;;10.20;45.80;;;;;;4966764;28;20206;-82
2022/05/03 02:05:55;;;;;;;1.73;1.63;;;10.20;46.40;;;;;;4966716;29;20261;-82
2022/05/03 02:08:24;;;;;;;3.57;1.20;;;9.90;43.20;;;;;;4963128;29;20285;-83
2022/05/03 02:11:02;;;;;;;2.93;1.40;;;9.90;42.30;;;;;;4965013;29;20210;-83
2022/05/03 02:17:00;;;;;;;1.57;1.23;;;9.70;45.30;;;;;;4958120;28;20224;-83
2022/05/03 02:19:59;;;;;;;3.80;1.50;;;9.60;46.20;;;;;;4962350;29;20652;-83
2022/05/03 02:22:42;;;;;;;1.73;1.17;;;9.60;44.20;;;;;;4961379;29;20225;-84
2022/05/03 02:25:35;;;;;;;1.23;1.10;;;9.60;44.80;;;;;;4962496;29;20309;-82
2022/05/03 02:28:05;;;;;;;2.60;1.30;;;9.60;46.10;;;;;;4962515;29;20653;-83
2022/05/03 02:30:33;;;;;;;1.73;1.37;;;9.60;47.30;;;;;;4962642;28;20301;-83
2022/05/03 02:33:04;;;;;;;2.97;1.50;;;9.50;48.40;;;;;;4962313;28;20210;-82
2022/05/03 02:35:35;;;;;;;3.63;1.57;;;9.50;47.90;;;;;;4962027;29;20245;-83
2022/05/03 02:38:05;;;;;;;1.50;1.30;;;9.40;45.20;;;;;;4961468;29;20242;-84
2022/05/03 02:40:33;;;;;;;2.30;1.33;;;9.40;45.60;;;;;;4961413;29;20556;-83
2022/05/03 02:43:01;;;;;;;1.10;1.10;;;9.30;45.60;;;;;;4961723;28;20248;-83
2022/05/03 02:45:30;;;;;;;1.57;1.20;;;9.40;46.00;;;;;;4961925;29;20226;-82
2022/05/03 02:48:07;;;;;;;2.20;1.13;;;9.40;46.60;;;;;;4962284;29;20214;-84
2022/05/03 02:50:43;;;;;;;2.37;1.70;;;9.40;45.30;;;;;;4962124;29;20232;-82
2022/05/03 02:53:21;;;;;;;2.87;1.30;;;9.30;45.50;;;;;;4961903;29;20198;-82
2022/05/03 02:55:51;;;;;;;1.40;1.30;;;9.40;47.60;;;;;;4962563;29;20328;-82
2022/05/03 02:58:38;;;;;;;1.47;1.30;;;9.50;49.70;;;;;;4962539;29;20214;-82
2022/05/03 03:04:04;;;;;;;2.60;1.30;;;9.50;51.70;;;;;;4961658;29;20190;-83
2022/05/03 03:06:35;;;;;;;2.50;1.60;;;9.40;47.10;;;;;;4961367;29;20242;-82
2022/05/03 03:09:03;;;;;;;2.23;1.60;;;9.30;44.70;;;;;;4961280;29;20306;-83
2022/05/03 03:11:42;;;;;;;2.13;1.80;;;9.40;45.40;;;;;;4960875;29;20206;-83
2022/05/03 03:14:22;;;;;;;2.00;1.50;;;9.60;45.80;;;;;;4960200;29;20230;-83
2022/05/03 03:16:55;;;;;;;3.33;1.40;;;9.60;44.70;;;;;;4961274;29;20206;-84
2022/05/03 03:19:48;;;;;;;2.70;1.50;;;9.50;44.40;;;;;;4960556;29;20210;-83
2022/05/03 03:22:17;;;;;;;2.13;1.10;;;9.40;45.70;;;;;;4961726;29;20230;-83
2022/05/03 03:24:44;;;;;;;1.97;1.33;;;9.50;50.50;;;;;;4961114;28;20648;-82
2022/05/03 03:27:12;;;;;;;4.57;1.60;;;9.50;50.30;;;;;;4960366;28;20297;-84
2022/05/03 03:29:40;;;;;;;1.63;1.40;;;9.40;49.70;;;;;;4960371;29;20289;-84
2022/05/03 03:32:09;;;;;;;2.27;1.37;;;9.40;52.60;;;;;;4960866;28;20220;-85
2022/05/03 03:34:37;;;;;;;1.27;1.17;;;9.40;54.60;;;;;;4960667;29;20230;-83
2022/05/03 03:37:07;;;;;;;2.70;1.50;;;9.40;56.20;;;;;;4962129;28;20261;-83
2022/05/03 03:39:37;;;;;;;1.30;1.20;;;9.60;59.00;;;;;;4961518;29;20221;-82
2022/05/03 03:42:06;;;;;;;1.73;1.47;;;9.50;59.90;;;;;;4961779;29;20218;-82
2022/05/03 03:44:33;;;;;;;2.33;1.63;;;9.50;61.20;;;;;;4961577;29;20233;-82
2022/05/03 03:47:01;;;;;;;3.93;1.37;;;9.50;62.30;;;;;;4961653;29;20271;-83
2022/05/03 03:49:29;;;;;;;1.93;1.50;;;9.30;63.50;;;;;;4961276;29;20289;-84
2022/05/03 03:51:57;;;;;;;1.97;1.50;;;9.30;70.30;;;;;;4962086;29;20270;-84
2022/05/03 03:54:26;;;;;;;2.23;1.63;;;9.30;72.90;;;;;;4961302;28;20716;-82
2022/05/03 03:56:55;;;;;;;4.77;2.10;;;9.20;74.30;;;;;;4961018;28;20233;-83
2022/05/03 03:59:22;;;;;;;4.27;2.27;;;9.00;82.80;;;;;;4961380;28;20692;-82
2022/05/03 04:01:50;;;;;;;2.37;2.17;;;9.00;87.90;;;;;;4961940;29;20297;-82
2022/05/03 04:04:18;;;;;;;7.47;2.00;;;8.90;93.90;;;;;;4961462;29;20649;-82
2022/05/03 04:06:45;;;;;;;3.90;2.07;;;8.80;96.50;;;;;;4961024;29;20651;-82
2022/05/03 04:09:12;;;;;;;2.97;2.30;;;8.90;97.70;;;;;;4963122;29;20661;-83
2022/05/03 04:11:46;;;;;;;5.33;2.50;;;9.00;99.50;;;;;;4962926;29;20202;-82
2022/05/03 04:14:15;;;;;;;3.83;2.73;;;9.00;99.90;;;;;;4962428;28;20224;-82
2022/05/03 04:16:42;;;;;;;3.10;2.80;;;9.10;99.90;;;;;;4962467;29;20210;-84
2022/05/03 04:19:11;;;;;;;3.07;2.30;;;9.20;99.90;;;;;;4962072;28;20206;-82
2022/05/03 04:21:38;;;;;;;4.03;2.70;;;9.30;99.90;;;;;;4961008;29;20207;-83
2022/05/03 04:24:06;;;;;;;3.17;2.03;;;9.20;99.90;;;;;;4960225;29;20209;-83
2022/05/03 04:26:33;;;;;;;3.43;2.60;;;9.40;99.90;;;;;;4960574;29;20269;-83
2022/05/03 04:29:00;;;;;;;4.63;2.70;;;9.30;99.90;;;;;;4961331;29;20238;-82
2022/05/03 04:31:29;;;;;;;2.77;2.50;;;9.20;99.90;;;;;;4960911;28;20202;-82
2022/05/03 04:33:57;;;;;;;3.10;2.67;;;9.30;99.90;;;;;;4961136;29;20289;-82
2022/05/03 04:36:25;;;;;;;2.87;2.40;;;9.30;99.70;;;;;;4960938;29;20316;-82
2022/05/03 04:38:52;;;;;;;4.07;2.70;;;9.30;99.90;;;;;;4959842;29;20274;-83
2022/05/03 04:41:21;;;;;;;5.70;3.23;;;9.40;99.90;;;;;;4960062;28;20236;-82
2022/05/03 04:43:47;;;;;;;3.00;2.70;;;9.40;97.10;;;;;;4960231;29;20218;-82
2022/05/03 04:46:14;;;;;;;3.20;2.60;;;9.20;95.80;;;;;;4959625;28;20230;-82
2022/05/03 04:48:43;;;;;;;3.77;3.20;;;9.30;98.00;;;;;;4959541;28;20206;-82
2022/05/03 04:51:17;;;;;;;4.07;2.80;;;9.30;96.80;;;;;;4958902;29;20210;-83
2022/05/03 04:53:44;;;;;;;4.13;3.17;;;9.30;96.30;;;;;;4958654;29;20197;-83
2022/05/03 04:56:18;;;;;;;2.77;2.40;;;9.40;96.60;;;;;;4958333;28;20234;-82
2022/05/03 04:58:44;;;;;;;3.87;2.73;;;9.30;95.70;;;;;;4958148;29;20207;-84
2022/05/03 05:01:12;;;;;;;7.33;2.73;;;9.40;96.20;;;;;;4958448;29;20641;-82
2022/05/03 05:03:38;;;;;;;4.03;2.90;;;9.70;94.70;;;;;;4958265;29;20237;-82
2022/05/03 05:06:07;;;;;;;4.00;2.73;;;10.00;90.30;;;;;;4957801;29;20665;-82
2022/05/03 05:08:33;;;;;;;2.67;2.47;;;10.00;89.30;;;;;;4958563;28;20226;-83
2022/05/03 05:11:01;;;;;;;4.00;2.57;;;9.90;91.70;;;;;;4941182;29;20215;-83
2022/05/03 05:13:28;;;;;;;2.97;2.67;;;10.10;92.30;;;;;;4961693;28;20229;-83
2022/05/03 05:15:55;;;;;;;3.00;2.57;;;10.70;90.20;;;;;;4962947;28;20245;-83
2022/05/03 05:18:24;;;;;;;3.00;2.70;;;11.90;73.90;;;;;;4961277;29;20241;-83
2022/05/03 05:20:50;;;;;;;3.87;2.90;;;11.70;62.80;;;;;;4959256;29;20236;-83
2022/05/03 05:23:19;;;;;;;6.47;3.00;;;10.90;58.20;;;;;;4962110;29;20222;-85
2022/05/03 05:25:47;;;;;;;5.13;2.63;;;11.30;58.00;;;;;;4961122;29;20230;-83
2022/05/03 05:28:14;;;;;;;3.80;2.80;;;11.90;53.20;;;;;;4962031;28;20211;-84
2022/05/03 05:30:41;;;;;;;4.87;2.83;;;12.30;49.90;;;;;;4962059;29;20589;-83
2022/05/03 05:33:08;;;;;;;4.97;2.60;;;11.80;50.00;;;;;;4961635;28;20198;-85
2022/05/03 05:35:35;;;;;;;4.13;2.63;;;11.20;52.50;;;;;;4960888;29;20700;-82
2022/05/03 05:38:02;;;;;;;3.63;2.50;;;11.40;54.60;;;;;;4963507;29;20282;-82
2022/05/03 05:40:31;;;;;;;3.13;2.47;;;12.20;50.80;;;;;;4961751;28;20297;-83
2022/05/03 05:43:00;;;;;;;7.37;3.03;;;12.00;45.40;;;;;;4961082;28;20222;-83
2022/05/03 05:45:26;;;;;;;3.80;2.53;;;12.50;47.70;;;;;;4959811;29;20218;-83
2022/05/03 05:47:53;;;;;;;6.30;3.27;;;12.20;43.60;;;;;;4961218;29;20266;-83
2022/05/03 05:50:20;;;;;;;5.50;2.53;;;12.20;46.10;;;;;;4964144;28;20317;-82
2022/05/03 05:55:33;;;;;;;8.90;2.80;;;11.80;46.80;;;;;;4965131;29;20229;-83
2022/05/03 05:58:00;;;;;;;4.07;3.03;;;11.70;46.70;;;;;;4965303;29;20237;-82
2022/05/03 06:00:26;;;;;;;4.40;3.00;;;12.10;46.60;;;;;;4966253;29;20297;-82
2022/05/03 06:02:53;;;;;;;5.10;3.00;;;12.30;44.20;;;;;;4966114;29;20198;-82
2022/05/03 06:05:20;;;;;;;5.63;3.10;;;12.10;46.70;;;;;;4965052;28;20715;-84
2022/05/03 06:07:47;;;;;;;3.87;2.97;;;12.10;47.20;;;;;;4966899;29;20302;-83
2022/05/03 06:10:14;;;;;;;4.57;2.60;;;12.40;43.60;;;;;;4965017;28;20293;-85
2022/05/03 06:12:42;;;;;;;5.00;3.30;;;13.90;36.40;;;;;;4966879;28;20297;-83
2022/05/03 06:15:10;;;;;;;5.20;2.83;;;13.70;30.60;;;;;;4967718;28;20241;-82
2022/05/03 06:17:37;;;;;;;4.83;3.20;;;14.30;27.10;;;;;;4967532;29;20658;-83
2022/05/03 06:20:04;;;;;;;4.10;2.70;;;14.60;24.90;;;;;;4966253;29;20210;-82
2022/05/03 06:22:31;;;;;;;4.40;2.73;;;13.90;25.50;;;;;;4967155;28;20240;-83
2022/05/03 06:24:58;;;;;;;7.97;3.33;;;12.80;28.80;;;;;;4966785;29;20309;-83
2022/05/03 06:27:25;;;;;;;4.17;3.03;;;12.40;31.90;;;;;;4966414;28;20646;-84
2022/05/03 06:29:53;;;;;;;4.97;3.10;;;12.30;33.70;;;;;;4968722;29;20234;-82
2022/05/03 06:32:20;;;;;;;4.33;3.20;;;12.20;31.20;;;;;;4969605;28;20688;-83
2022/05/03 06:34:46;;;;;;;4.47;3.17;;;12.20;31.40;;;;;;4969072;29;20318;-82
2022/05/03 06:37:17;;;;;;;3.60;3.10;;;12.20;30.30;;;;;;4968874;29;20290;-85
2022/05/03 06:39:44;;;;;;;3.93;2.80;;;12.30;28.60;;;;;;4967093;29;20221;-84
2022/05/03 06:42:11;;;;;;;6.00;3.17;;;13.20;29.00;;;;;;4968149;28;20229;-82
2022/05/03 06:44:38;;;;;;;3.40;2.90;;;13.50;26.90;;;;;;4966831;29;20237;-84
2022/05/03 06:47:08;;;;;;;3.60;2.87;;;13.60;24.90;;;;;;4969553;28;20202;-82
2022/05/03 06:49:35;;;;;;;3.47;2.63;;;13.30;21.00;;;;;;4969601;29;20213;-82
2022/05/03 06:52:02;;;;;;;4.67;3.10;;;12.70;23.00;;;;;;4968100;28;20270;-84
2022/05/03 06:54:29;;;;;;;4.43;3.13;;;13.10;20.50;;;;;;4967183;29;20226;-84
2022/05/03 06:56:56;;;;;;;4.10;2.77;;;13.50;21.30;;;;;;4968927;28;20233;-83
2022/05/03 06:59:23;;;;;;;7.00;3.17;;;14.00;18.70;;;;;;4968815;29;20222;-84
2022/05/03 07:01:50;;;;;;;3.60;2.63;;;13.30;20.10;;;;;;4969656;28;20241;-82
2022/05/03 07:04:18;;;;;;;4.03;2.60;;;13.40;19.20;;;;;;4970248;29;20234;-85
2022/05/03 07:06:45;;;;;;;8.90;2.90;;;13.80;19.30;;;;;;4971312;29;20198;-82
2022/05/03 07:09:12;;;;;;;3.00;1.80;;;14.20;16.30;;;;;;4969150;28;20210;-82
2022/05/03 07:11:39;;;;;;;2.30;1.57;;;14.10;11.40;;;;;;4970976;28;20210;-84
2022/05/03 07:14:06;;;;;;;3.53;2.50;;;14.30;5.00;;;;;;4967669;29;20202;-82
2022/05/03 07:16:33;;;;;;;7.13;2.27;;;13.90;11.20;;;;;;4967727;28;20682;-82
2022/05/03 07:24:45;;;;;;;4.03;2.10;;;13.90;12.70;;;;;;4946750;29;20226;-82
2022/05/03 07:27:13;;;;;;;3.70;1.70;;;13.70;10.00;;;;;;4957914;29;20202;-82
2022/05/03 07:29:39;;;;;;;1.50;0.90;;;13.70;10.60;;;;;;4966275;29;20242;-83
2022/05/03 07:32:07;;;;;;;1.77;0.87;;;13.60;1.00;;;;;;4966993;28;20290;-83
2022/05/03 07:34:34;;;;;;;3.87;1.40;;;13.50;1.00;;;;;;4967489;28;20257;-82
2022/05/03 07:37:02;;;;;;;1.00;1.00;;;13.60;1.00;;;;;;4966358;29;20222;-83
2022/05/03 07:39:30;;;;;;;0.70;0.70;;;13.50;1.00;;;;;;4961958;28;20237;-82
2022/05/03 07:41:57;;;;;;;1.13;1.03;;;13.20;1.00;;;;;;4961921;29;20206;-83
2022/05/03 07:44:24;;;;;;;2.63;1.50;;;13.10;1.00;;;;;;4963553;29;20226;-82
2022/05/03 07:46:51;;;;;;;2.17;1.63;;;13.10;2.30;;;;;;4967180;29;20233;-84
2022/05/03 07:49:18;;;;;;;1.40;1.30;;;13.10;1.00;;;;;;4965940;29;20213;-82
2022/05/03 07:51:45;;;;;;;2.57;1.67;;;13.20;2.90;;;;;;4964664;29;20206;-82
2022/05/03 07:54:13;;;;;;;4.53;1.80;;;13.20;1.00;;;;;;4960680;29;20202;-84
2022/05/03 07:56:40;;;;;;;4.87;1.70;;;13.20;1.00;;;;;;4961725;28;20230;-83
2022/05/03 07:59:09;;;;;;;2.40;1.83;;;12.90;1.00;;;;;;4961634;29;20297;-82
2022/05/03 08:01:37;;;;;;;3.87;1.70;;;13.00;3.20;;;;;;4959321;28;20293;-83
2022/05/03 08:04:04;;;;;;;3.47;1.80;;;13.30;4.20;;;;;;4961680;29;20206;-82
2022/05/03 08:06:30;;;;;;;3.67;1.70;;;13.10;3.10;;;;;;4964010;29;20265;-83
2022/05/03 08:08:57;;;;;;;1.73;1.60;;;13.40;3.60;;;;;;4965817;29;20692;-82
2022/05/03 08:11:25;;;;;;;2.57;1.80;;;13.50;1.70;;;;;;4968845;28;20230;-84
2022/05/03 08:13:53;;;;;;;3.53;1.83;;;13.40;2.20;;;;;;4966342;28;20721;-84
2022/05/03 08:16:21;;;;;;;3.10;1.80;;;13.50;3.80;;;;;;4965513;29;20234;-83
2022/05/03 08:18:48;;;;;;;4.73;1.87;;;13.70;5.00;;;;;;4958639;29;20230;-83
2022/05/03 08:21:16;;;;;;;4.97;2.17;;;13.70;4.20;;;;;;4959710;29;20217;-82
2022/05/03 08:23:43;;;;;;;2.77;2.17;;;13.70;6.00;;;;;;4961987;28;20299;-82
2022/05/03 08:26:11;;;;;;;2.67;2.10;;;13.80;3.90;;;;;;4957222;29;20309;-83
2022/05/03 08:28:41;;;;;;;2.67;2.17;;;13.80;5.00;;;;;;4961590;28;20236;-83
2022/05/03 08:31:08;;;;;;;4.70;2.10;;;13.50;2.50;;;;;;4965375;29;20206;-83
2022/05/03 08:33:35;;;;;;;2.17;1.90;;;13.50;3.50;;;;;;4962398;28;20278;-84
2022/05/03 08:36:03;;;;;;;3.67;2.10;;;13.80;6.00;;;;;;4963426;28;20269;-84
2022/05/03 08:44:01;;;;;;;3.77;2.10;;;14.10;2.90;;;;;;4965500;28;20234;-82
2022/05/03 08:46:31;;;;;;;5.43;2.57;;;13.80;3.20;;;;;;4959674;28;20264;-82
2022/05/03 08:49:02;;;;;;;2.53;2.33;;;14.20;3.30;;;;;;4961415;29;20202;-82
2022/05/03 08:51:31;;;;;;;4.57;2.30;;;14.30;3.00;;;;;;4961505;29;20210;-82
2022/05/03 08:53:59;;;;;;;3.20;2.33;;;14.60;4.30;;;;;;4966545;28;20221;-84
2022/05/03 08:56:27;;;;;;;3.20;2.67;;;14.80;1.00;;;;;;4962312;28;20258;-84
2022/05/03 08:58:56;;;;;;;3.13;2.40;;;15.10;4.20;;;;;;4963965;29;20208;-83
2022/05/03 09:01:24;;;;;;;4.00;2.80;;;15.00;1.00;;;;;;4967914;29;20213;-83
2022/05/03 09:03:51;;;;;;;2.40;2.07;;;15.10;1.00;;;;;;4967763;29;20210;-85
2022/05/03 09:06:19;;;;;;;3.80;2.30;;;15.80;1.00;;;;;;4966989;28;20230;-83
2022/05/03 09:08:50;;;;;;;2.90;2.20;;;16.20;2.80;;;;;;4964112;28;20202;-84
2022/05/03 09:11:18;;;;;;;3.97;2.30;;;16.00;1.00;;;;;;4967006;29;20297;-82
2022/05/03 09:13:46;;;;;;;4.73;2.93;;;16.50;1.00;;;;;;4965583;29;20627;-82
2022/05/03 09:16:15;;;;;;;4.00;2.75;;;16.30;1.00;;;;;;4965105;29;20252;-83
2022/05/03 09:18:45;;;;;;;4.27;2.50;;;16.60;3.30;;;;;;4964868;28;20214;-82
2022/05/03 09:24:08;;;;;;;4.18;2.60;;;16.90;1.00;;;;;;4970396;28;20201;-83
2022/05/03 09:26:37;;;;;;;4.05;2.70;;;17.30;1.00;;;;;;4972668;28;20312;-84
2022/05/03 09:29:07;;;;;;;5.07;2.70;;;17.60;1.00;;;;;;4972466;28;20579;-83
2022/05/03 09:31:35;;;;;;;3.42;2.72;;;17.70;1.00;;;;;;4975519;28;20214;-83
2022/05/03 09:34:05;;;;;;;4.38;3.05;;;17.70;1.00;;;;;;4971733;28;20237;-84
2022/05/03 09:36:43;;;;;;;4.75;3.15;;;18.30;1.00;;;;;;4974225;28;20238;-86
2022/05/03 09:39:22;;;;;;;4.28;3.05;;;17.90;1.00;;;;;;4972831;29;20210;-84
2022/05/03 09:42:06;;;;;;;3.28;2.83;;;17.00;1.00;;;;;;4974158;29;20297;-83
2022/05/03 09:44:36;;;;;;;5.57;3.63;;;17.00;1.00;;;;;;4973739;29;20225;-83
2022/05/03 09:47:07;;;;;;;5.07;3.42;;;17.60;1.00;;;;;;4975225;29;20195;-83
2022/05/03 09:49:37;;;;;;;3.95;3.15;;;17.90;1.00;;;;;;4972807;29;20281;-83
2022/05/03 09:52:05;;;;;;;3.63;2.85;;;17.90;1.00;;;;;;4976046;29;20226;-85
2022/05/03 09:54:46;;;;;;;3.95;2.72;;;18.10;1.00;;;;;;4975094;29;20227;-85
2022/05/03 09:57:20;;;;;;;8.45;3.85;;;18.90;1.00;;;;;;4972343;29;20210;-83
2022/05/03 09:59:48;;;;;;;6.88;4.07;;;18.60;1.00;;;;;;4972657;29;20206;-85
2022/05/03 10:02:18;;;;;;;7.22;3.28;;;19.20;1.00;;;;;;4974710;28;20242;-84
2022/05/03 10:04:47;;;;;;;5.85;3.55;;;19.10;1.00;;;;;;4972857;29;20241;-85
2022/05/03 10:07:15;;;;;;;5.25;3.35;;;19.50;1.00;;;;;;4973006;28;20237;-84
2022/05/03 10:09:43;;;;;;;4.40;3.67;;;19.20;1.00;;;;;;4973501;28;20210;-83
2022/05/03 10:12:11;;;;;;;6.28;4.00;;;18.50;1.00;;;;;;4971776;29;20685;-83
2022/05/03 10:14:39;;;;;;;5.55;4.00;;;17.80;1.00;;;;;;4974952;28;20234;-84
2022/05/03 10:22:43;;;;;;;5.38;3.70;;;19.20;1.00;;;;;;4973233;29;20234;-83
2022/05/03 10:25:10;;;;;;;8.35;4.07;;;19.40;1.00;;;;;;4973126;29;20315;-83
2022/05/03 10:27:55;;;;;;;6.05;3.83;;;19.20;1.00;;;;;;4974559;29;20217;-84
2022/05/03 10:30:24;;;;;;;5.20;4.15;;;19.10;1.00;;;;;;4973932;29;20242;-84
2022/05/03 10:33:28;;;;;;;5.60;3.78;;;19.30;1.00;;;;;;4975459;28;20218;-83
2022/05/03 10:35:58;;;;;;;5.40;3.65;;;19.70;1.00;;;;;;4958737;28;20684;-84
2022/05/03 10:38:37;;;;;;;4.40;3.55;;;19.40;1.00;;;;;;4972288;28;20229;-85
2022/05/03 10:41:05;;;;;;;4.30;3.90;;;19.60;1.00;;;;;;4972907;29;20278;-83
2022/05/03 10:43:34;;;;;;;5.13;4.00;;;18.80;1.00;;;;;;4971619;28;20277;-84
2022/05/03 10:46:11;;;;;;;4.35;3.40;;;18.70;1.00;;;;;;4971845;29;20226;-83
2022/05/03 10:48:41;;;;;;;5.95;3.80;;;19.10;1.00;;;;;;4972432;29;20209;-83
2022/05/03 10:51:11;;;;;;;4.47;3.58;;;20.00;1.00;;;;;;4973630;28;20202;-83
2022/05/03 10:53:40;;;;;;;3.78;3.25;;;19.60;1.00;;;;;;4970988;29;20270;-83
2022/05/03 10:56:16;;;;;;;4.18;3.42;;;19.70;1.00;;;;;;4972922;29;20245;-85
2022/05/03 10:58:45;;;;;;;4.47;3.65;;;19.70;1.00;;;;;;4971350;29;20212;-83
2022/05/03 11:01:14;;;;;;;5.25;4.00;;;20.30;1.00;;;;;;4972719;28;20254;-83
2022/05/03 11:04:02;;;;;;;5.28;4.10;;;19.10;1.00;;;;;;4972946;29;20202;-84
2022/05/03 11:06:46;;;;;;;6.35;3.72;;;18.80;1.00;;;;;;4973465;28;20206;-85
2022/05/03 11:09:15;;;;;;;4.72;4.00;;;20.00;1.00;;;;;;4973838;29;20237;-84
2022/05/03 11:11:56;;;;;;;4.95;3.40;;;20.00;1.00;;;;;;4970438;29;20206;-83
2022/05/03 11:14:55;;;;;;;5.05;4.07;;;20.20;1.00;;;;;;4969825;29;20641;-83
2022/05/03 11:17:23;;;;;;;4.07;3.67;;;20.10;1.00;;;;;;4970896;29;20661;-84
2022/05/03 11:19:53;;;;;;;6.60;4.05;;;20.10;1.00;;;;;;4968247;28;20274;-84
2022/05/03 11:22:22;;;;;;;5.60;3.53;;;20.80;1.00;;;;;;4971814;29;20228;-85
2022/05/03 11:24:51;;;;;;;4.95;3.70;;;20.20;1.00;;;;;;4967990;29;20249;-83
2022/05/03 11:27:19;;;;;;;5.70;4.00;;;18.90;1.00;;;;;;4966433;29;20213;-84
2022/05/03 11:29:47;;;;;;;5.72;4.30;;;19.40;1.00;;;;;;4968542;28;20222;-85
2022/05/03 11:32:16;;;;;;;4.25;3.65;;;19.30;1.00;;;;;;4969480;28;20214;-83
2022/05/03 11:34:44;;;;;;;5.10;3.30;;;20.40;1.00;;;;;;4966790;29;20700;-84
2022/05/03 11:37:11;;;;;;;3.58;3.28;;;20.70;1.00;;;;;;4966733;28;20316;-83
2022/05/03 11:39:40;;;;;;;5.50;3.47;;;20.40;1.00;;;;;;4970338;29;20266;-86
2022/05/03 11:42:10;;;;;;;4.20;3.65;;;19.80;1.00;;;;;;4967917;28;20214;-82
2022/05/03 11:44:44;;;;;;;6.00;3.80;;;18.90;1.00;;;;;;4970244;29;20225;-84
2022/05/03 11:47:12;;;;;;;4.75;3.90;;;19.40;1.00;;;;;;4971240;28;20249;-83
2022/05/03 11:49:38;;;;;;;4.85;4.00;;;19.30;1.00;;;;;;4967427;28;20206;-85
2022/05/03 11:57:49;;;;;;;4.25;3.53;;;19.90;1.00;;;;;;4961769;29;20261;-85
2022/05/03 12:00:16;;;;;;;3.38;3.05;;;19.90;1.00;;;;;;4967162;29;20245;-84
2022/05/03 12:02:44;;;;;;;3.80;3.40;;;20.00;1.00;;;;;;4965137;28;20289;-84
2022/05/03 12:05:16;;;;;;;5.13;3.70;;;20.00;1.00;;;;;;4967419;29;20308;-84
2022/05/03 12:07:44;;;;;;;5.72;3.30;;;20.50;1.00;;;;;;4970928;29;20242;-85
2022/05/03 12:10:24;;;;;;;3.90;3.45;;;20.00;1.00;;;;;;4970502;29;20282;-84
2022/05/03 12:13:07;;;;;;;4.18;3.30;;;19.70;1.00;;;;;;4971191;29;20213;-86
2022/05/03 12:15:36;;;;;;;5.38;4.00;;;20.00;1.00;;;;;;4971662;28;20218;-86
2022/05/03 12:18:04;;;;;;;5.32;4.30;;;19.60;1.00;;;;;;4971373;28;20233;-84
2022/05/03 12:20:42;;;;;;;5.05;3.85;;;19.40;1.00;;;;;;4970794;28;20202;-83
2022/05/03 12:23:15;;;;;;;6.15;4.75;;;19.00;1.00;;;;;;4966058;29;20229;-83
2022/05/03 12:25:44;;;;;;;5.63;4.22;;;18.70;1.00;;;;;;4967370;29;20260;-83
2022/05/03 12:28:11;;;;;;;4.60;3.80;;;20.10;1.00;;;;;;4970332;28;20238;-83
2022/05/03 12:30:38;;;;;;;3.83;3.42;;;20.50;1.00;;;;;;4968504;29;20230;-83
2022/05/03 12:33:07;;;;;;;3.75;3.38;;;20.50;1.00;;;;;;4971202;29;20237;-85
2022/05/03 12:35:40;;;;;;;5.57;3.50;;;20.60;1.00;;;;;;4969325;29;20273;-84
2022/05/03 12:38:09;;;;;;;7.03;3.60;;;20.50;1.00;;;;;;4971486;29;20222;-84
2022/05/03 12:40:48;;;;;;;5.45;4.00;;;20.50;1.00;;;;;;4971415;28;20225;-84
2022/05/03 12:43:16;;;;;;;5.22;4.45;;;20.20;1.00;;;;;;4971136;28;20301;-83
2022/05/03 12:45:55;;;;;;;5.78;4.13;;;19.10;1.00;;;;;;4971295;28;20241;-84
2022/05/03 12:48:22;;;;;;;4.65;4.00;;;19.00;1.00;;;;;;4971857;29;20208;-83
2022/05/03 12:50:49;;;;;;;5.82;4.47;;;18.90;1.00;;;;;;4972124;29;20234;-83
2022/05/03 12:53:16;;;;;;;5.10;3.85;;;19.10;1.00;;;;;;4970988;29;20202;-85
2022/05/03 12:55:44;;;;;;;5.57;3.70;;;19.30;1.00;;;;;;4972119;28;20298;-84
2022/05/03 12:58:24;;;;;;;5.82;4.20;;;20.30;1.00;;;;;;4969502;29;20261;-83
2022/05/03 13:00:52;;;;;;;7.03;4.40;;;21.00;1.00;;;;;;4969586;29;20238;-83
2022/05/03 13:03:21;;;;;;;6.43;4.65;;;21.00;1.00;;;;;;4970751;29;20265;-84
2022/05/03 13:05:48;;;;;;;5.38;4.53;;;20.90;1.00;;;;;;4970782;28;20313;-84
2022/05/03 13:08:15;;;;;;;5.35;4.15;;;20.70;1.00;;;;;;4970666;29;20209;-83
2022/05/03 13:10:44;;;;;;;4.70;4.13;;;20.40;1.00;;;;;;4972586;29;20210;-84
2022/05/03 13:13:11;;;;;;;6.72;4.35;;;20.10;1.00;;;;;;4971353;29;20254;-83
2022/05/03 13:15:38;;;;;;;4.97;3.70;;;19.80;1.00;;;;;;4969364;28;20219;-84
2022/05/03 13:18:06;;;;;;;5.22;3.08;;;20.70;1.00;;;;;;4967621;29;20233;-84
2022/05/03 13:20:32;;;;;;;8.02;4.55;;;20.70;1.00;;;;;;4969671;29;20234;-84
2022/05/03 13:22:59;;;;;;;6.68;3.95;;;19.80;1.00;;;;;;4971194;29;20241;-85
2022/05/03 13:25:26;;;;;;;5.43;3.90;;;20.50;1.00;;;;;;4970019;29;20249;-84
2022/05/03 13:27:55;;;;;;;5.75;4.05;;;21.20;1.00;;;;;;4970980;29;20190;-85
2022/05/03 13:30:22;;;;;;;6.32;4.18;;;20.50;1.00;;;;;;4968926;29;20258;-84
2022/05/03 13:32:49;;;;;;;3.97;3.58;;;20.30;1.00;;;;;;4971142;28;20277;-84
2022/05/03 13:40:28;;;;;;;4.82;4.22;;;19.60;1.00;;;;;;4969542;28;20240;-83
2022/05/03 13:40:47;;;;;;;4.50;3.50;;;20.00;1.00;;;;;;4969361;28;20205;-83
2022/05/03 13:43:15;;;;;;;5.10;3.60;;;20.20;1.00;;;;;;4968559;28;20216;-84
2022/05/03 13:45:42;;;;;;;5.53;4.00;;;20.80;1.00;;;;;;4969764;29;20230;-84
2022/05/03 13:48:09;;;;;;;3.97;3.50;;;19.90;1.00;;;;;;4970693;29;20207;-83
2022/05/03 13:50:39;;;;;;;6.40;3.72;;;20.30;1.00;;;;;;4971327;29;20302;-83